Time;durP1;ratioP1;P1;durP2;ratioP2;P2;SDS_P1;SDS_P2;PMS_P1;PMS_P2;Temp;Humidity;BMP_temperature;BMP_pressure;BME280_temperature;BME280_humidity;BME280_pressure;Samples;Min_cycle;Max_cycle;Signal;HPM_P1;HPM_P2
2022/11/01 00:00:30;;;;;;;8.68;4.22;;;;;;;1.64;87.15;100710.83;1717272;83;22218;-90
2022/11/01 00:02:57;;;;;;;10.03;4.58;;;;;;;1.54;87.97;100716.38;1716819;83;20967;-91
2022/11/01 00:05:25;;;;;;;9.80;4.15;;;;;;;1.48;88.55;100711.12;1717009;83;21073;-90
2022/11/01 00:07:52;;;;;;;12.00;4.85;;;;;;;1.60;88.56;100707.77;1715865;83;21121;-91
2022/11/01 00:10:21;;;;;;;11.93;4.65;;;;;;;1.60;88.66;100707.77;1716125;83;21065;-90
2022/11/01 00:12:51;;;;;;;9.23;4.62;;;;;;;1.54;88.72;100706.39;1715895;83;21981;-89
2022/11/01 00:15:18;;;;;;;11.07;4.67;;;;;;;1.57;89.00;100705.15;1715832;83;21076;-91
2022/11/01 00:17:45;;;;;;;12.55;5.87;;;;;;;1.65;89.04;100713.85;1715966;83;21311;-91
2022/11/01 00:20:15;;;;;;;10.20;4.87;;;;;;;1.66;88.63;100710.42;1715540;83;21084;-91
2022/11/01 00:22:42;;;;;;;13.08;5.10;;;;;;;1.70;88.33;100710.00;1717643;81;20990;-90
2022/11/01 00:25:11;;;;;;;9.33;5.10;;;;;;;1.60;88.26;100714.25;1718034;82;21139;-93
2022/11/01 00:27:39;;;;;;;14.15;5.20;;;;;;;1.57;88.51;100710.34;1715721;82;21026;-90
2022/11/01 00:30:07;;;;;;;15.88;5.20;;;;;;;1.51;88.42;100710.27;1713873;83;21077;-91
2022/11/01 00:32:37;;;;;;;11.55;4.47;;;;;;;1.43;88.51;100707.62;1713809;83;21022;-92
2022/11/01 00:35:06;;;;;;;12.03;4.90;;;;;;;1.34;88.84;100705.80;1713764;83;21582;-93
2022/11/01 00:37:39;;;;;;;;;;;;;;;1.40;88.49;100704.97;1716619;83;21571;-90
2022/11/01 00:40:06;;;;;;;14.47;5.25;;;;;;;1.37;88.75;100705.81;1714115;83;20173;-92
2022/11/01 00:42:35;;;;;;;8.63;4.45;;;;;;;1.38;88.92;100704.98;1714080;83;21021;-91
2022/11/01 00:45:06;;;;;;;15.55;5.22;;;;;;;1.33;89.38;100705.77;1714341;82;21136;-90
2022/11/01 00:47:34;;;;;;;15.32;4.87;;;;;;;1.35;89.32;100704.06;1717809;81;20982;-91
2022/11/01 00:50:01;;;;;;;13.05;5.22;;;;;;;1.38;89.34;100707.97;1716465;82;21140;-91
2022/11/01 00:52:28;;;;;;;10.40;4.42;;;;;;;1.35;89.47;100707.52;1718676;83;21004;-91
2022/11/01 00:54:56;;;;;;;10.28;4.37;;;;;;;1.24;90.05;100715.63;1724984;81;20986;-91
2022/11/01 00:57:22;;;;;;;9.38;4.75;;;;;;;1.25;90.06;100713.48;1723412;83;21059;-92
2022/11/01 00:59:50;;;;;;;9.98;4.08;;;;;;;1.21;90.16;100707.81;1725119;81;21076;-91
2022/11/01 01:02:16;;;;;;;11.10;4.42;;;;;;;1.31;89.80;100710.97;1725184;83;21201;-91
2022/11/01 01:04:43;;;;;;;11.05;4.25;;;;;;;1.24;89.80;100711.73;1723501;83;21025;-90
2022/11/01 01:07:10;;;;;;;12.63;5.05;;;;;;;1.40;89.71;100708.46;1724603;81;21077;-91
2022/11/01 01:09:36;;;;;;;10.03;4.90;;;;;;;1.39;90.04;100708.44;1725074;81;20977;-90
2022/11/01 01:12:04;;;;;;;13.18;5.35;;;;;;;1.51;89.66;100708.97;1725602;81;20997;-93
2022/11/01 01:14:35;;;;;;;11.95;4.58;;;;;;;1.54;89.78;100711.19;1723526;82;21282;-93
2022/11/01 01:17:03;;;;;;;8.93;4.55;;;;;;;1.37;90.61;100707.11;1722738;83;21009;-92
2022/11/01 01:19:31;;;;;;;9.23;3.87;;;;;;;1.33;90.99;100709.23;1722695;83;21104;-90
2022/11/01 01:22:01;;;;;;;10.48;4.70;;;;;;;1.35;90.78;100707.52;1722716;83;21022;-93
2022/11/01 01:24:30;;;;;;;12.50;4.62;;;;;;;1.39;91.10;100705.84;1722486;81;21041;-91
2022/11/01 01:26:58;;;;;;;7.22;3.95;;;;;;;1.36;91.25;100707.13;1723783;81;20978;-90
2022/11/01 01:29:25;;;;;;;11.83;4.40;;;;;;;1.39;91.41;100704.11;1725652;81;21025;-90
2022/11/01 01:31:51;;;;;;;10.08;4.55;;;;;;;1.36;91.54;100703.23;1725519;81;21013;-91
2022/11/01 01:34:21;;;;;;;11.33;4.60;;;;;;;1.41;91.61;100706.30;1725164;81;20919;-90
2022/11/01 01:36:50;;;;;;;9.35;4.12;;;;;;;1.37;91.54;100708.41;1723537;82;21084;-92
2022/11/01 01:39:18;;;;;;;11.30;4.97;;;;;;;1.39;91.78;100705.41;1723478;83;21128;-92
2022/11/01 01:41:55;;;;;;;10.08;4.85;;;;;;;1.36;91.41;100706.69;1722838;83;21523;-89
2022/11/01 01:44:50;;;;;;;10.38;5.30;;;;;;;1.25;91.48;100701.37;1725777;81;21061;-91
2022/11/01 01:47:25;;;;;;;9.78;4.67;;;;;;;1.23;91.42;100710.00;1725289;81;21029;-91
2022/11/01 01:50:18;;;;;;;8.93;4.30;;;;;;;1.14;91.65;100704.72;1725226;81;21021;-90
2022/11/01 01:52:55;;;;;;;9.28;4.45;;;;;;;1.05;91.68;100699.86;1721029;81;21252;-91
2022/11/01 01:55:47;;;;;;;13.20;4.30;;;;;;;1.07;91.41;100700.33;1725406;81;21049;-91
2022/11/01 01:58:16;;;;;;;11.60;4.85;;;;;;;0.99;91.33;100702.81;1724460;83;21044;-91
2022/11/01 02:00:42;;;;;;;10.23;4.37;;;;;;;0.87;91.77;100698.36;1724406;82;21048;-91
2022/11/01 02:03:13;;;;;;;10.28;4.65;;;;;;;0.84;91.72;100702.22;1721974;83;21084;-91
2022/11/01 02:05:59;;;;;;;10.08;4.72;;;;;;;0.79;92.01;100705.20;1722476;83;21123;-92
2022/11/01 02:08:28;;;;;;;11.18;4.75;;;;;;;0.75;92.66;100708.59;1722173;83;21089;-92
2022/11/01 02:11:02;;;;;;;8.93;4.08;;;;;;;0.79;92.53;100711.24;1722544;83;21093;-92
2022/11/01 02:13:31;;;;;;;9.03;4.97;;;;;;;0.88;92.08;100718.27;1723812;83;20998;-91
2022/11/01 02:16:22;;;;;;;6.28;3.67;;;;;;;0.77;92.86;100720.72;1724152;83;21072;-91
2022/11/01 02:19:09;;;;;;;;;;;;;;;0.73;93.60;100723.26;1727298;83;21103;-91
2022/11/01 02:22:05;;;;;;;15.53;4.97;;;;;;;0.76;93.73;100718.10;1723276;83;20182;-91
2022/11/01 02:25:00;;;;;;;8.38;4.20;;;;;;;0.74;93.68;100721.13;1722363;82;21049;-91
2022/11/01 02:27:59;;;;;;;8.83;4.65;;;;;;;0.70;94.00;100724.53;1722247;83;21013;-92
2022/11/01 02:30:50;;;;;;;11.85;4.72;;;;;;;0.67;94.89;100721.87;1697054;83;20994;-91
2022/11/01 02:33:29;;;;;;;8.83;4.72;;;;;;;0.82;94.51;100719.05;1696439;83;21200;-91
2022/11/01 02:36:05;;;;;;;11.55;4.75;;;;;;;0.88;94.57;100720.86;1725753;81;21061;-90
2022/11/01 02:38:39;;;;;;;9.68;4.33;;;;;;;0.82;95.23;100722.08;1722828;81;21085;-91
2022/11/01 02:41:26;;;;;;;8.83;4.70;;;;;;;0.62;95.87;100720.52;1722903;82;21032;-92
2022/11/01 02:44:01;;;;;;;7.72;4.55;;;;;;;0.69;96.04;100731.84;1721303;82;21037;-92
2022/11/01 02:49:18;;;;;;;9.93;3.42;;;;;;;0.57;96.95;100734.72;1721379;83;21256;-90
2022/11/01 02:51:46;;;;;;;9.90;4.92;;;;;;;0.60;96.82;100734.78;1721332;83;21021;-92
2022/11/01 02:54:33;;;;;;;12.82;4.50;;;;;;;0.36;97.68;100740.91;1694452;83;21096;-92
2022/11/01 02:57:08;;;;;;;11.10;4.80;;;;;;;0.42;97.49;100738.41;1723672;82;21771;-93
2022/11/01 02:59:46;;;;;;;11.15;4.12;;;;;;;0.34;98.07;100746.48;1687339;83;21272;-91
2022/11/01 03:02:19;;;;;;;10.32;4.70;;;;;;;0.41;98.00;100747.91;1751331;81;21268;-91
2022/11/01 03:04:46;;;;;;;9.15;4.33;;;;;;;0.43;97.96;100739.28;1753898;81;21088;-91
2022/11/01 03:07:13;;;;;;;12.50;4.33;;;;;;;0.47;97.81;100749.70;1753848;81;21033;-92
2022/11/01 03:09:39;;;;;;;9.23;3.58;;;;;;;0.45;98.00;100743.62;1753562;81;21013;-92
2022/11/01 03:12:24;;;;;;;10.10;3.92;;;;;;;0.43;98.20;100744.03;1724340;81;21237;-92
2022/11/01 03:15:19;;;;;;;10.95;4.20;;;;;;;0.47;98.37;100747.12;1752998;81;21002;-91
2022/11/01 03:17:50;;;;;;;10.80;4.85;;;;;;;0.40;98.95;100745.29;1751710;81;21642;-92
2022/11/01 03:20:48;;;;;;;8.55;3.87;;;;;;;0.39;98.90;100744.83;1723858;81;21577;-92
2022/11/01 03:23:19;;;;;;;9.35;4.00;;;;;;;0.35;99.13;100746.95;1753017;81;21540;-92
2022/11/01 03:25:51;;;;;;;11.57;4.20;;;;;;;0.27;99.18;100747.25;1748556;81;21303;-94
2022/11/01 03:28:28;;;;;;;8.13;4.08;;;;;;;0.37;98.75;100742.67;1752933;81;21593;-93
2022/11/01 03:31:14;;;;;;;9.73;4.22;;;;;;;0.39;98.68;100746.13;1753050;81;21131;-92
2022/11/01 03:33:44;;;;;;;11.95;4.50;;;;;;;0.16;99.79;100736.32;1752277;81;21084;-90
2022/11/01 03:36:17;;;;;;;9.33;4.28;;;;;;;0.25;99.62;100739.45;1753255;81;21341;-92
2022/11/01 03:38:55;;;;;;;13.88;4.87;;;;;;;0.27;99.85;100748.55;1753230;81;21707;-93
2022/11/01 03:41:22;;;;;;;15.95;4.58;;;;;;;0.26;100.00;100746.81;1753611;80;21127;-91
2022/11/01 03:43:48;;;;;;;9.90;4.22;;;;;;;0.21;100.00;100742.87;1753833;81;21597;-94
2022/11/01 03:46:15;;;;;;;7.35;4.10;;;;;;;0.07;100.00;100741.36;1757231;80;21001;-91
2022/11/01 03:48:42;;;;;;;12.00;4.15;;;;;;;0.04;100.00;100736.11;1757074;80;20954;-91
2022/11/01 03:51:10;;;;;;;10.38;3.95;;;;;;;0.31;100.00;100742.57;1757277;80;21065;-91
2022/11/01 03:53:37;;;;;;;12.55;4.95;;;;;;;0.31;100.00;100743.86;1756413;80;21006;-91
2022/11/01 03:56:05;;;;;;;10.28;4.60;;;;;;;0.20;100.00;100745.86;1753751;80;21546;-93
2022/11/01 03:58:43;;;;;;;14.00;4.33;;;;;;;0.15;100.00;100747.52;1751081;82;21068;-92
2022/11/01 04:01:13;;;;;;;8.70;4.08;;;;;;;0.02;100.00;100751.19;1751409;82;21536;-91
2022/11/01 04:03:40;;;;;;;11.40;4.72;;;;;;;0.15;100.00;100751.40;1751370;82;21290;-91
2022/11/01 04:06:07;;;;;;;9.90;4.72;;;;;;;0.01;100.00;100747.73;1751824;82;21072;-91
2022/11/01 04:08:33;;;;;;;10.88;4.62;;;;;;;-0.01;100.00;100750.71;1751413;82;22213;-92
2022/11/01 04:11:02;;;;;;;8.75;4.08;;;;;;;-0.02;100.00;100751.58;1751362;82;21036;-93
2022/11/01 04:13:30;;;;;;;15.80;4.15;;;;;;;-0.02;100.00;100754.16;1751161;82;21618;-92
2022/11/01 04:20:31;;;;;;;10.35;4.67;;;;;;;0.05;100.00;100754.70;1751347;82;21149;-90
2022/11/01 04:21:24;;;;;;;7.58;4.03;;;;;;;-0.02;100.00;100754.16;1749550;82;21092;-92
2022/11/01 04:23:50;;;;;;;10.00;4.53;;;;;;;0.01;100.00;100760.67;1753482;80;21073;-91
2022/11/01 04:26:20;;;;;;;10.82;4.72;;;;;;;0.05;100.00;100763.77;1753734;82;21081;-90
2022/11/01 04:28:57;;;;;;;8.08;4.22;;;;;;;0.08;100.00;100764.23;1752974;82;21103;-91
2022/11/01 04:31:34;;;;;;;14.13;4.70;;;;;;;-0.01;100.00;100758.48;1752151;82;22075;-91
2022/11/01 04:34:04;;;;;;;14.35;4.35;;;;;;;0.06;100.00;100760.32;1752108;82;21065;-92
2022/11/01 04:36:30;;;;;;;9.08;4.08;;;;;;;0.08;100.00;100765.53;1724149;82;21073;-92
2022/11/01 04:38:57;;;;;;;9.40;4.15;;;;;;;0.10;100.00;100767.30;1752105;82;21029;-93
2022/11/01 04:41:26;;;;;;;22.22;4.95;;;;;;;0.01;100.00;100764.56;1751486;82;22738;-93
2022/11/01 04:43:55;;;;;;;12.15;4.80;;;;;;;0.13;100.00;100767.34;1751196;82;21110;-91
2022/11/01 04:46:22;;;;;;;11.70;4.65;;;;;;;0.15;100.00;100764.78;1751636;81;21021;-93
2022/11/01 04:48:50;;;;;;;11.12;4.87;;;;;;;0.19;100.00;100772.63;1751217;81;21063;-91
2022/11/01 04:51:17;;;;;;;11.70;5.10;;;;;;;0.17;100.00;100774.75;1751016;81;21027;-92
2022/11/01 04:53:44;;;;;;;11.60;5.05;;;;;;;0.21;100.00;100780.42;1749031;81;21181;-92
2022/11/01 04:56:12;;;;;;;11.70;4.87;;;;;;;0.23;100.00;100784.31;1743664;82;21134;-91
2022/11/01 04:58:39;;;;;;;10.50;4.47;;;;;;;0.10;100.00;100780.25;1744205;82;21067;-92
2022/11/01 05:01:06;;;;;;;8.50;4.03;;;;;;;0.12;100.00;100778.55;1743268;82;21110;-93
2022/11/01 05:03:37;;;;;;;8.20;3.72;;;;;;;0.13;100.00;100775.10;1743308;82;21055;-91
2022/11/01 05:06:07;;;;;;;13.40;4.58;;;;;;;0.18;100.00;100776.08;1722054;82;21139;-92
2022/11/01 05:08:37;;;;;;;15.18;4.90;;;;;;;0.18;100.00;100776.08;1742904;82;21016;-93
2022/11/01 05:11:05;;;;;;;11.10;4.90;;;;;;;0.23;100.00;100770.96;1743295;82;21245;-94
2022/11/01 05:13:33;;;;;;;10.85;4.55;;;;;;;0.22;100.00;100777.41;1743576;82;21086;-92
2022/11/01 05:16:03;;;;;;;14.63;5.62;;;;;;;0.27;100.00;100765.39;1743878;82;21043;-92
2022/11/01 05:18:33;;;;;;;20.70;6.70;;;;;;;0.36;100.00;100763.80;1743711;82;23055;-92
2022/11/01 05:21:01;;;;;;;14.00;5.60;;;;;;;0.41;100.00;100765.16;1721480;82;21086;-92
2022/11/01 05:23:29;;;;;;;15.20;5.35;;;;;;;0.47;100.00;100766.98;1743187;82;21079;-93
2022/11/01 05:25:56;;;;;;;11.28;4.97;;;;;;;0.49;100.00;100766.16;1743286;82;21035;-93
2022/11/01 05:28:23;;;;;;;15.18;5.67;;;;;;;0.43;100.00;100766.05;1743471;82;21134;-92
2022/11/01 05:30:50;;;;;;;13.03;5.70;;;;;;;0.43;100.00;100767.35;1743009;82;21143;-92
2022/11/01 05:33:19;;;;;;;17.35;5.42;;;;;;;0.57;100.00;100773.59;1743361;82;21575;-91
2022/11/01 05:35:47;;;;;;;10.03;5.25;;;;;;;0.60;100.00;100777.55;1743366;82;21090;-92
2022/11/01 05:38:20;;;;;;;18.98;6.30;;;;;;;0.64;100.00;100779.73;1722378;82;21078;-93
2022/11/01 05:40:51;;;;;;;17.92;5.97;;;;;;;0.81;100.00;100778.69;1742633;82;21074;-92
2022/11/01 05:43:18;;;;;;;14.10;5.92;;;;;;;0.94;100.00;100770.62;1722433;82;21422;-92
2022/11/01 05:45:48;;;;;;;19.63;6.93;;;;;;;0.99;100.00;100768.55;1743594;82;21611;-92
2022/11/01 05:48:20;;;;;;;20.10;6.30;;;;;;;1.05;100.00;100778.98;1688540;83;21773;-93
2022/11/01 05:50:49;;;;;;;16.52;7.05;;;;;;;1.28;100.00;100780.11;1743916;82;21050;-92
2022/11/01 05:53:16;;;;;;;17.57;8.05;;;;;;;1.40;100.00;100775.94;1743939;82;21033;-92
2022/11/01 05:55:42;;;;;;;17.62;7.25;;;;;;;1.84;100.00;100771.61;1690358;84;21182;-91
2022/11/01 05:58:09;;;;;;;25.45;10.05;;;;;;;2.60;100.00;100773.03;1709906;82;21073;-91
2022/11/01 06:00:39;;;;;;;24.87;9.63;;;;;;;4.44;100.00;100763.83;1736760;82;21570;-92
2022/11/01 06:03:06;;;;;;;29.15;10.63;;;;;;;4.44;100.00;100763.83;1736822;82;21526;-92
2022/11/01 06:05:33;;;;;;;49.45;19.37;;;;;;;5.33;100.00;100756.98;1736700;82;21069;-93
2022/11/01 06:08:01;;;;;;;80.20;29.05;;;;;;;6.17;100.00;100763.41;1737064;82;20982;-91
2022/11/01 06:10:34;;;;;;;75.70;27.50;;;;;;;6.96;100.00;100758.22;1737186;82;21023;-93
2022/11/01 06:13:02;;;;;;;76.25;30.32;;;;;;;7.80;100.00;100761.41;1736725;82;21015;-91
2022/11/01 06:15:34;;;;;;;101.00;31.68;;;;;;;8.69;96.92;100752.04;1737470;82;21081;-91
2022/11/01 06:18:04;;;;;;;37.80;13.53;;;;;;;9.37;88.35;100752.37;1737969;82;21066;-92
2022/11/01 06:20:35;;;;;;;14.13;6.12;;;;;;;10.06;79.77;100752.53;1737031;82;21234;-91
2022/11/01 06:23:10;;;;;;;15.70;5.85;;;;;;;10.61;74.56;100745.85;1737256;82;21210;-93
2022/11/01 06:25:41;;;;;;;14.40;5.50;;;;;;;11.40;69.45;100749.72;1692138;83;20991;-93
2022/11/01 10:42:38;;;;;;;3.75;1.30;;;;;;;23.02;21.79;100598.72;1864322;76;22703;-94
2022/11/01 10:45:11;;;;;;;2.42;1.30;;;;;;;23.06;21.20;100602.86;1837308;76;20978;-92
2022/11/01 10:47:42;;;;;;;3.17;1.30;;;;;;;23.10;21.48;100592.23;1848287;76;21098;-93
2022/11/01 10:50:17;;;;;;;2.90;1.50;;;;;;;23.07;21.69;100598.34;1849786;76;20929;-95
2022/11/01 10:52:52;;;;;;;2.42;1.60;;;;;;;23.28;21.63;100603.77;1849543;76;20902;-93
2022/11/01 10:55:49;;;;;;;4.70;1.42;;;;;;;23.44;20.96;100594.78;1848477;76;20953;-93
2022/11/01 10:58:41;;;;;;;3.85;1.75;;;;;;;23.45;21.21;100592.48;1847152;77;20859;-92
2022/11/01 11:01:12;;;;;;;4.28;1.70;;;;;;;23.68;20.96;100596.41;1846902;77;21282;-95
2022/11/01 11:03:46;;;;;;;4.58;1.47;;;;;;;23.75;21.64;100594.94;1848705;76;21008;-95
2022/11/01 11:06:34;;;;;;;3.15;1.60;;;;;;;23.70;20.52;100593.95;1849052;77;20890;-96
2022/11/01 11:09:07;;;;;;;3.98;1.70;;;;;;;23.75;20.80;100597.63;1844371;76;20989;-96
2022/11/01 11:11:40;;;;;;;3.37;1.52;;;;;;;23.76;20.80;100595.28;1846378;76;20950;-95
2022/11/01 11:14:22;;;;;;;2.22;1.20;;;;;;;23.77;21.26;100599.70;1850114;76;20855;-96
2022/11/01 11:16:55;;;;;;;8.60;1.65;;;;;;;23.87;20.88;100585.81;1799755;76;76954;-68
2022/11/01 11:19:38;;;;;;;2.90;1.65;;;;;;;23.80;20.50;100587.33;1748479;82;21025;-68
2022/11/01 11:22:07;;;;;;;3.85;1.40;;;;;;;23.48;21.13;100584.14;1748142;82;21053;-68
2022/11/01 11:24:40;;;;;;;4.28;2.05;;;;;;;23.57;20.74;100587.41;1748410;82;21080;-67
2022/11/01 11:27:22;;;;;;;3.25;1.47;;;;;;;23.47;20.78;100581.11;1748612;81;21111;-68
2022/11/01 11:29:52;;;;;;;3.42;1.72;;;;;;;23.05;21.45;100580.99;1748329;82;21076;-67
2022/11/01 11:32:24;;;;;;;3.20;1.63;;;;;;;22.78;22.17;100578.23;1748718;82;21045;-67
2022/11/01 11:35:16;;;;;;;4.55;1.57;;;;;;;22.93;21.46;100584.66;1747553;81;21303;-68
2022/11/01 11:37:57;;;;;;;3.33;1.62;;;;;;;23.00;20.62;100580.03;1748541;82;21549;-68
2022/11/01 11:40:25;;;;;;;3.92;1.90;;;;;;;22.84;20.80;100584.91;1748712;82;21903;-68
2022/11/01 11:43:16;;;;;;;3.52;1.80;;;;;;;22.96;21.10;100581.25;1748317;82;21042;-68
2022/11/01 11:45:47;;;;;;;4.00;1.65;;;;;;;22.94;21.13;100581.02;1746906;82;21066;-68
2022/11/01 11:48:20;;;;;;;7.37;1.77;;;;;;;22.72;21.36;100581.89;1746920;81;21038;-67
2022/11/01 11:50:48;;;;;;;3.37;1.80;;;;;;;22.65;21.89;100586.91;1746919;81;21065;-68
2022/11/01 11:53:21;;;;;;;3.95;1.92;;;;;;;22.65;21.04;100593.61;1707242;82;21142;-68
2022/11/01 11:55:54;;;;;;;6.47;2.52;;;;;;;22.31;21.68;100586.05;1746051;81;21031;-67
2022/11/01 11:58:42;;;;;;;3.85;1.60;;;;;;;21.97;22.29;100586.85;1746265;82;21073;-67
2022/11/01 12:01:17;;;;;;;3.60;1.75;;;;;;;21.88;22.84;100582.20;1746163;82;21082;-68
2022/11/01 12:04:06;;;;;;;7.03;2.08;;;;;;;21.87;21.47;100592.54;1746345;81;21011;-68
2022/11/01 12:06:37;;;;;;;5.20;1.80;;;;;;;21.83;21.49;100588.88;1746380;82;21129;-68
2022/11/01 12:09:05;;;;;;;3.52;1.87;;;;;;;21.95;21.94;100595.50;1746563;81;21050;-69
2022/11/01 12:11:40;;;;;;;5.97;2.30;;;;;;;21.81;21.27;100594.38;1746369;82;21026;-68
2022/11/01 12:14:23;;;;;;;4.17;2.27;;;;;;;21.60;22.08;100590.63;1756444;81;21046;-68
2022/11/01 12:16:50;;;;;;;5.58;1.90;;;;;;;21.45;22.44;100592.66;1745815;82;21057;-68
2022/11/01 12:19:27;;;;;;;6.30;2.22;;;;;;;21.33;22.88;100593.06;1738237;82;21241;-68
2022/11/01 12:22:00;;;;;;;5.55;1.95;;;;;;;21.26;22.81;100593.16;1737785;82;21566;-68
2022/11/01 12:24:34;;;;;;;7.30;1.82;;;;;;;20.93;23.03;100602.69;1738211;82;22250;-67
2022/11/01 12:27:04;;;;;;;4.12;2.08;;;;;;;20.65;22.76;100597.98;1737589;82;21069;-67
2022/11/01 12:29:41;;;;;;;5.03;1.98;;;;;;;20.32;23.52;100597.21;1738219;82;21420;-67
2022/11/01 12:32:27;;;;;;;4.80;2.10;;;;;;;20.15;23.73;100601.05;1738062;82;21576;-67
2022/11/01 12:34:58;;;;;;;3.60;1.77;;;;;;;19.96;24.09;100596.61;1737951;82;21050;-67
2022/11/01 12:38:06;;;;;;;3.40;2.10;;;;;;;19.67;24.22;100601.62;1738239;82;21030;-67
2022/11/01 12:40:36;;;;;;;4.70;2.22;;;;;;;19.31;25.23;100607.59;1737981;82;22232;-67
2022/11/01 12:43:14;;;;;;;5.92;2.15;;;;;;;19.05;25.17;100611.50;1737575;82;21581;-68
2022/11/01 12:46:01;;;;;;;4.37;2.00;;;;;;;18.77;25.10;100607.53;1711376;82;21094;-67
2022/11/01 12:48:55;;;;;;;4.80;1.87;;;;;;;18.72;25.04;100612.28;1708361;83;21089;-67
2022/11/01 12:51:36;;;;;;;3.80;1.60;;;;;;;18.37;25.30;100610.02;1671089;85;21026;-68
2022/11/01 12:54:19;;;;;;;2.77;1.60;;;;;;;18.00;25.12;100598.94;1670882;85;21022;-67
2022/11/01 12:56:46;;;;;;;13.72;2.17;;;;;;;17.88;25.97;100599.70;1670319;85;21600;-66
2022/11/01 12:59:16;;;;;;;3.77;1.95;;;;;;;17.71;25.75;100589.99;1670964;85;21627;-68
2022/11/01 13:02:20;;;;;;;3.10;1.80;;;;;;;17.47;26.42;100594.97;1671195;85;21748;-67
2022/11/01 13:05:24;;;;;;;4.87;2.22;;;;;;;17.09;26.36;100598.91;1670879;85;21053;-67
2022/11/01 13:08:17;;;;;;;4.70;2.17;;;;;;;16.79;26.91;100588.15;1671096;85;21606;-68
2022/11/01 13:10:46;;;;;;;5.45;2.30;;;;;;;16.48;27.87;100596.45;1670996;85;21076;-68
2022/11/01 13:13:31;;;;;;;4.95;1.87;;;;;;;16.11;28.43;100593.11;1670914;85;21232;-67
2022/11/01 13:16:29;;;;;;;8.98;2.45;;;;;;;15.95;28.91;100590.88;1671144;85;21545;-67
2022/11/01 13:19:01;;;;;;;7.30;2.42;;;;;;;15.86;28.85;100586.89;1653557;85;21541;-67
2022/11/01 13:21:53;;;;;;;4.75;2.45;;;;;;;15.55;29.41;100597.31;1671095;85;21056;-67
2022/11/01 13:24:34;;;;;;;5.58;2.10;;;;;;;15.30;30.07;100591.45;1671177;85;21621;-67
2022/11/01 13:27:27;;;;;;;3.98;2.12;;;;;;;15.12;30.94;100592.34;1671184;85;21129;-67
2022/11/01 13:30:04;;;;;;;7.42;2.47;;;;;;;14.95;30.87;100586.98;1670547;85;21033;-67
2022/11/01 13:32:39;;;;;;;6.47;2.70;;;;;;;14.71;30.80;100584.57;1671153;85;21562;-67
2022/11/01 13:35:17;;;;;;;4.70;2.58;;;;;;;14.56;31.63;100581.30;1670623;85;21093;-67
2022/11/01 13:38:01;;;;;;;27.45;14.45;;;;;;;14.41;31.87;100582.38;1671168;85;21104;-66
2022/11/01 13:40:49;;;;;;;8.40;4.22;;;;;;;14.25;32.17;100578.23;1670844;85;21127;-66
2022/11/01 13:43:27;;;;;;;11.45;4.47;;;;;;;13.97;33.13;100571.98;1670063;85;21054;-66
2022/11/01 13:46:21;;;;;;;6.95;3.67;;;;;;;13.97;33.09;100570.66;1642576;87;21125;-67
2022/11/01 13:49:09;;;;;;;12.88;3.80;;;;;;;13.88;33.55;100571.54;1642123;86;21081;-66
2022/11/01 13:51:49;;;;;;;6.33;3.25;;;;;;;13.71;34.25;100565.63;1641977;86;21061;-66
2022/11/01 13:54:31;;;;;;;10.32;2.60;;;;;;;13.71;34.82;100559.02;1642238;87;21630;-66
2022/11/01 13:57:11;;;;;;;9.48;3.42;;;;;;;13.63;34.94;100557.56;1642334;86;21065;-67
2022/11/01 13:59:43;;;;;;;11.30;3.98;;;;;;;13.29;35.69;100556.80;1642381;86;21060;-67
2022/11/01 14:02:32;;;;;;;18.62;4.75;;;;;;;13.22;35.95;100553.97;1642541;87;21042;-67
2022/11/01 14:05:07;;;;;;;16.85;4.80;;;;;;;13.03;36.17;100553.88;1642260;86;21081;-67
2022/11/01 14:07:46;;;;;;;12.98;4.50;;;;;;;12.90;36.53;100548.20;1642305;87;21244;-67
2022/11/01 14:10:20;;;;;;;16.55;5.60;;;;;;;12.86;36.87;100549.70;1642101;87;21538;-67
2022/11/01 14:13:11;;;;;;;13.38;5.40;;;;;;;12.78;37.20;100546.06;1642129;86;21056;-67
2022/11/01 14:15:58;;;;;;;11.97;4.62;;;;;;;12.49;37.92;100549.82;1642236;87;21038;-67
2022/11/01 14:18:26;;;;;;;15.38;5.22;;;;;;;12.42;38.38;100549.66;1642442;87;21078;-67
2022/11/01 14:20:55;;;;;;;26.05;5.67;;;;;;;12.52;38.33;100544.44;1642286;87;22219;-67
2022/11/01 14:23:31;;;;;;;9.05;4.60;;;;;;;12.29;38.46;100543.53;1642400;87;21090;-67
2022/11/01 19:18:46;;;;;;;89.15;35.10;;;;;;;6.11;64.81;100402.59;1776996;78;28124;-96
2022/11/01 19:21:29;;;;;;;53.13;22.35;;;;;;;6.12;66.08;100401.69;1600955;82;83572;-67
2022/11/01 19:23:56;;;;;;;43.48;20.37;;;;;;;6.26;62.68;100395.84;1727726;81;21267;-67
2022/11/01 19:26:33;;;;;;;63.85;28.65;;;;;;;6.44;62.53;100398.59;1709678;82;21034;-67
2022/11/01 19:29:00;;;;;;;60.05;25.90;;;;;;;6.61;64.25;100395.72;1711240;82;21113;-67
2022/11/01 19:31:38;;;;;;;77.80;34.18;;;;;;;6.70;64.11;100392.95;1708110;82;21014;-67
2022/11/01 19:34:18;;;;;;;61.15;28.20;;;;;;;6.78;64.37;100392.81;1706207;82;21054;-67
2022/11/01 19:36:47;;;;;;;70.67;28.23;;;;;;;6.81;64.33;100394.95;1709051;82;21555;-67
2022/11/01 19:39:31;;;;;;;76.15;32.58;;;;;;;6.80;63.54;100392.34;1710726;82;21593;-67
2022/11/01 19:42:00;;;;;;;84.67;36.88;;;;;;;6.85;64.33;100394.43;1734007;82;20991;-67
2022/11/01 19:44:28;;;;;;;68.02;28.62;;;;;;;6.82;63.96;100393.19;1699432;83;21072;-67
2022/11/01 19:47:00;;;;;;;78.30;33.42;;;;;;;6.76;64.17;100384.98;1708861;83;21089;-67
2022/11/01 19:49:28;;;;;;;67.08;32.70;;;;;;;6.72;64.22;100391.17;1704885;82;21130;-67
2022/11/01 19:52:22;;;;;;;52.33;25.75;;;;;;;6.70;65.15;100391.64;1708085;83;21148;-67
2022/11/01 19:54:51;;;;;;;71.35;32.75;;;;;;;6.64;65.47;100389.13;1689193;83;21131;-67
2022/11/01 19:57:35;;;;;;;75.25;33.00;;;;;;;6.54;67.06;100391.48;1688901;83;21048;-67
2022/11/01 20:00:18;;;;;;;71.92;32.78;;;;;;;6.47;68.12;100386.34;1699793;83;21576;-67
2022/11/01 20:02:50;;;;;;;70.00;29.90;;;;;;;6.45;68.68;100379.41;1682626;84;21121;-67
2022/11/01 20:05:28;;;;;;;74.47;35.30;;;;;;;6.36;68.99;100373.88;1684799;84;21069;-67
2022/11/01 20:08:16;;;;;;;82.82;36.90;;;;;;;6.33;69.91;100372.63;1683122;84;21033;-67
2022/11/01 20:10:44;;;;;;;79.58;36.98;;;;;;;6.24;70.48;100368.84;1688929;83;21045;-67
2022/11/01 20:13:12;;;;;;;74.80;33.15;;;;;;;6.18;70.51;100381.55;1702630;83;21195;-66
2022/11/01 20:15:39;;;;;;;79.05;36.65;;;;;;;6.11;71.02;100382.53;1703766;83;21138;-67
2022/11/01 20:18:05;;;;;;;57.03;26.57;;;;;;;6.04;71.46;100388.74;1698214;83;21067;-67
2022/11/01 20:20:33;;;;;;;57.03;25.00;;;;;;;5.95;72.02;100392.34;1704623;83;21102;-68
2022/11/01 20:23:01;;;;;;;60.65;28.98;;;;;;;5.91;73.09;100403.69;1708523;83;21089;-66
2022/11/01 20:25:29;;;;;;;72.70;34.05;;;;;;;5.84;73.82;100407.27;1700146;83;21110;-66
2022/11/01 20:27:56;;;;;;;89.30;35.50;;;;;;;5.73;74.79;100409.16;1695909;83;21536;-68
2022/11/01 20:30:23;;;;;;;81.05;34.98;;;;;;;5.70;74.62;100404.84;1706064;83;21642;-67
2022/11/01 20:32:50;;;;;;;65.67;29.80;;;;;;;5.54;74.77;100395.02;1704152;83;21130;-68
2022/11/01 20:35:17;;;;;;;65.05;29.18;;;;;;;5.50;74.78;100399.87;1701181;83;21643;-67
2022/11/01 20:37:43;;;;;;;87.60;37.13;;;;;;;5.46;75.36;100396.87;1704049;83;21055;-67
2022/11/01 20:40:11;;;;;;;83.07;35.40;;;;;;;5.45;76.07;100404.27;1698930;83;21389;-66
2022/11/01 20:42:38;;;;;;;76.35;31.93;;;;;;;5.41;75.88;100410.43;1701029;83;21558;-67
2022/11/01 20:45:05;;;;;;;71.45;33.88;;;;;;;5.40;75.09;100408.69;1719965;82;21059;-66
2022/11/01 20:47:32;;;;;;;75.25;30.62;;;;;;;5.31;75.50;100400.95;1731672;82;21492;-67
2022/11/01 20:50:02;;;;;;;68.02;28.17;;;;;;;5.25;75.85;100394.92;1723694;82;21099;-67
2022/11/01 20:52:29;;;;;;;59.35;25.68;;;;;;;5.18;76.52;100390.66;1710902;82;21950;-66
2022/11/01 20:54:55;;;;;;;50.92;21.00;;;;;;;5.15;77.62;100390.66;1727509;82;21119;-67
2022/11/01 20:57:22;;;;;;;49.45;22.42;;;;;;;5.17;77.78;100388.05;1701009;83;21412;-66
2022/11/01 20:59:50;;;;;;;80.22;35.50;;;;;;;5.15;78.08;100381.52;1704264;83;21095;-65
2022/11/01 21:02:18;;;;;;;75.12;33.58;;;;;;;5.11;77.98;100377.66;1701264;83;21606;-69
2022/11/01 21:04:45;;;;;;;73.20;32.05;;;;;;;5.05;77.62;100369.47;1701141;83;21095;-67